KHRL

Valley International Airport

Harlingen, Texas, USA
METAR KHRL 191907Z 14013KT 5SM VCTS -RA BR FEW048 SCT065 OVC100 27/25 A2991 RMK AO2 LTG DSNT W AND NW P0003 T02720250
Observed Flight Rules
Sep-19 @ 19:07 UTC (5 minutes ago) Marginal Visual Flight Rules
Wind Visibility Clouds Conditions
140° at 13 knots 5 miles
  • Few at 4,800' AGL
  • Scattered at 6,500' AGL
  • Overcast at 10,000' AGL
  • Area Thunderstorm
  • Light Rain
  • Mist
Temperatures Readings Precipitation
Current 27°C / 81°F
Dewpoint 25°C / 77°F
Humidity 89%
Altimeter 29.91" Hg
Pressure 1013 hPa
Elevation 10
Current Rain 0.03
METAR KHRL 191907Z 14013KT 5SM VCTS -RA BR FEW048 SCT065 OVC100 27/25 A2991 RMK AO2 LTG DSNT W AND NW P0003 T02720250
Observed Flight Rules
Sep-19 @ 19:07 UTC
(5 minutes ago)
MVFR
Wind Visibility
140° at 13 knots 5 miles
Clouds
  • Few at 4,800' AGL
  • Scattered at 6,500' AGL
  • Overcast at 10,000' AGL
Conditions
  • Area Thunderstorm
  • Light Rain
  • Mist
Temperature Dewpoint
27°C / 81°F 25°C / 77°F
Humidity Altimeter Pressure
89% 29.91" Hg 1013 hPa
Current Rain
0.03